Time;durP1;ratioP1;P1;durP2;ratioP2;P2;SDS_P1;SDS_P2;PMS_P1;PMS_P2;Temp;Humidity;BMP_temperature;BMP_pressure;BME280_temperature;BME280_humidity;BME280_pressure;Samples;Min_cycle;Max_cycle;Signal;HPM_P1;HPM_P2
2023/06/12 00:01:09;;;;;;;5.35;3.42;;;;;;;15.61;100.00;92592.41;5061160;28;20045;-80
2023/06/12 00:03:35;;;;;;;5.00;3.70;;;;;;;15.68;100.00;92605.13;5074121;28;20044;-80
2023/06/12 00:06:03;;;;;;;7.30;3.78;;;;;;;15.68;100.00;92592.16;5088634;28;20443;-80
2023/06/12 00:08:33;;;;;;;9.30;3.85;;;;;;;15.69;100.00;92598.13;5084954;28;20044;-80
2023/06/12 00:11:00;;;;;;;6.30;4.15;;;;;;;15.69;100.00;92588.53;5066539;28;20102;-81
2023/06/12 00:13:27;;;;;;;9.27;3.45;;;;;;;15.74;100.00;92603.31;5069444;28;20047;-80
2023/06/12 00:15:54;;;;;;;5.07;3.65;;;;;;;15.69;100.00;92585.94;5060263;28;20456;-80
2023/06/12 00:18:21;;;;;;;5.80;3.88;;;;;;;15.73;100.00;92596.56;5066017;28;20040;-81
2023/06/12 00:20:47;;;;;;;6.03;3.72;;;;;;;15.73;100.00;92601.75;5079039;28;20500;-81
2023/06/12 00:23:14;;;;;;;10.52;4.15;;;;;;;15.72;100.00;92600.19;5066687;28;20045;-80
2023/06/12 00:25:42;;;;;;;6.85;3.75;;;;;;;15.73;100.00;92594.78;5081004;28;20056;-80
2023/06/12 00:28:09;;;;;;;4.78;3.08;;;;;;;15.45;100.00;92560.53;5060652;28;20153;-80
2023/06/12 00:30:36;;;;;;;6.65;3.60;;;;;;;15.72;100.00;92597.59;5079508;28;20044;-80
2023/06/12 00:33:03;;;;;;;5.10;3.67;;;;;;;15.70;100.00;92592.69;5070809;28;20393;-80
2023/06/12 00:35:30;;;;;;;4.63;3.05;;;;;;;15.75;100.00;92597.09;5085502;28;20050;-80
2023/06/12 00:37:56;;;;;;;5.38;3.50;;;;;;;15.76;100.00;92591.69;5064104;28;20045;-81
2023/06/12 00:40:23;;;;;;;5.28;3.38;;;;;;;15.68;100.00;92587.00;5082148;28;20506;-81
2023/06/12 00:42:52;;;;;;;4.78;3.28;;;;;;;15.72;100.00;92588.03;5072853;28;20048;-79
2023/06/12 00:45:21;;;;;;;4.35;3.13;;;;;;;15.73;100.00;92586.22;5066791;28;20045;-80
2023/06/12 00:47:51;;;;;;;5.13;3.88;;;;;;;15.61;100.00;92573.53;5077895;28;20145;-80
2023/06/12 00:50:19;;;;;;;7.50;3.97;;;;;;;15.69;100.00;92585.94;5078616;28;20044;-80
2023/06/12 00:52:48;;;;;;;6.25;3.65;;;;;;;15.61;100.00;92586.47;5059042;28;20412;-80
2023/06/12 00:55:15;;;;;;;5.95;3.75;;;;;;;15.65;100.00;92594.50;5067714;28;20052;-79
2023/06/12 00:57:43;;;;;;;5.38;3.65;;;;;;;15.69;100.00;92585.94;5065502;28;20052;-80
2023/06/12 01:00:14;;;;;;;6.22;4.10;;;;;;;15.67;100.00;92585.44;5055796;28;20102;-80
2023/06/12 01:02:44;;;;;;;6.03;4.32;;;;;;;15.44;100.00;92564.16;5073909;28;20051;-80
2023/06/12 01:05:13;;;;;;;7.20;4.35;;;;;;;15.70;100.00;92602.28;5069351;28;20048;-75
2023/06/12 01:07:47;;;;;;;6.03;4.20;;;;;;;15.64;100.00;92601.47;5078831;28;20061;-80
2023/06/12 01:10:20;;;;;;;6.70;4.18;;;;;;;15.67;100.00;92595.78;5054250;28;20044;-80
2023/06/12 01:12:49;;;;;;;6.88;4.25;;;;;;;15.45;100.00;92554.59;5061864;28;20459;-80
2023/06/12 01:15:20;;;;;;;6.15;4.22;;;;;;;15.63;100.00;92582.59;5065412;28;20044;-80
2023/06/12 01:17:46;;;;;;;5.10;3.80;;;;;;;15.70;100.00;92589.34;5069248;28;20044;-78
2023/06/12 01:20:13;;;;;;;6.25;4.35;;;;;;;15.71;100.00;92590.88;5080275;28;20048;-80
2023/06/12 01:22:49;;;;;;;6.78;3.90;;;;;;;15.73;100.00;92591.38;5057711;28;20049;-79
2023/06/12 01:25:46;;;;;;;7.05;4.82;;;;;;;15.72;100.00;92595.03;5064312;28;20059;-80
2023/06/12 01:28:29;;;;;;;6.10;4.22;;;;;;;15.69;100.00;92596.31;5059311;28;20106;-79
2023/06/12 01:31:13;;;;;;;6.80;4.00;;;;;;;15.70;100.00;92591.91;5076804;28;20048;-80
2023/06/12 01:33:47;;;;;;;6.07;4.22;;;;;;;15.62;100.00;92581.03;5071331;28;20057;-80
2023/06/12 01:36:21;;;;;;;5.47;3.33;;;;;;;15.72;100.00;92585.44;5064794;28;20040;-80
2023/06/12 01:38:54;;;;;;;5.28;3.72;;;;;;;15.72;100.00;92587.25;5079277;28;20056;-80
2023/06/12 01:41:23;;;;;;;5.50;4.35;;;;;;;15.73;100.00;92588.81;5070682;28;20049;-81
2023/06/12 01:43:50;;;;;;;5.68;3.67;;;;;;;15.74;100.00;92585.19;5064421;28;20040;-82
2023/06/12 01:46:16;;;;;;;5.20;3.55;;;;;;;15.75;100.00;92573.81;5087518;28;20805;-82
2023/06/12 01:48:45;;;;;;;4.90;3.58;;;;;;;15.76;100.00;92589.09;5079454;28;20118;-82
2023/06/12 01:51:11;;;;;;;5.82;3.65;;;;;;;15.75;100.00;92584.91;5065409;28;20048;-81
2023/06/12 01:53:39;;;;;;;6.78;3.55;;;;;;;15.74;100.00;92588.56;5078486;28;20045;-81
2023/06/12 01:56:06;;;;;;;6.35;3.80;;;;;;;15.73;100.00;92588.81;5056785;28;20059;-80
2023/06/12 01:58:33;;;;;;;6.32;3.65;;;;;;;15.57;100.00;92565.50;5078532;28;20132;-79
2023/06/12 02:00:59;;;;;;;5.40;3.42;;;;;;;15.70;100.00;92581.56;5058005;28;20110;-79
2023/06/12 02:03:26;;;;;;;7.22;4.45;;;;;;;15.72;100.00;92598.41;5084331;28;20105;-79
2023/06/12 02:05:54;;;;;;;5.72;4.07;;;;;;;15.68;100.00;92594.75;5074660;28;20815;-79
2023/06/12 02:08:21;;;;;;;5.22;3.53;;;;;;;15.61;100.00;92578.69;5065754;28;20093;-79
2023/06/12 02:10:47;;;;;;;5.80;3.38;;;;;;;15.66;100.00;92594.25;5061365;28;20056;-78
2023/06/12 02:13:14;;;;;;;4.53;3.55;;;;;;;15.67;100.00;92595.78;5083888;28;20097;-78
2023/06/12 02:15:41;;;;;;;4.57;3.53;;;;;;;15.67;100.00;92595.78;5090765;28;20559;-79
2023/06/12 02:18:08;;;;;;;6.07;3.60;;;;;;;15.67;100.00;92595.78;5073796;28;20056;-78
2023/06/12 02:20:34;;;;;;;6.95;4.47;;;;;;;15.65;100.00;92597.09;5069251;28;20138;-78
2023/06/12 02:23:02;;;;;;;7.03;4.22;;;;;;;15.57;100.00;92599.16;5063271;28;20786;-79
2023/06/12 02:25:29;;;;;;;7.45;4.47;;;;;;;15.55;100.00;92593.44;5060142;28;20053;-78
2023/06/12 02:27:56;;;;;;;6.32;3.92;;;;;;;15.56;100.00;92597.56;5065800;28;20844;-78
2023/06/12 02:30:23;;;;;;;5.82;4.15;;;;;;;15.36;100.00;92587.94;5053519;28;20041;-78
2023/06/12 02:32:49;;;;;;;5.32;3.78;;;;;;;15.34;100.00;92602.97;5075596;28;20121;-78
2023/06/12 02:35:16;;;;;;;5.90;4.28;;;;;;;15.32;100.00;92594.69;5059259;28;20049;-78
2023/06/12 02:37:43;;;;;;;8.98;4.57;;;;;;;15.40;100.00;92599.34;5065066;28;20052;-78
2023/06/12 02:40:12;;;;;;;6.45;4.50;;;;;;;15.45;100.00;92603.75;5070121;28;20044;-79
2023/06/12 02:42:39;;;;;;;6.95;4.30;;;;;;;15.45;100.00;92601.16;5066838;28;20091;-78
2023/06/12 02:45:07;;;;;;;6.22;4.25;;;;;;;15.46;100.00;92598.34;5065194;28;20459;-78
2023/06/12 02:47:33;;;;;;;5.72;4.07;;;;;;;15.51;100.00;92602.75;5060875;28;20048;-78
2023/06/12 02:50:00;;;;;;;5.95;3.88;;;;;;;15.55;100.00;92605.63;5079249;28;20055;-78
2023/06/12 02:52:27;;;;;;;5.55;4.00;;;;;;;15.55;100.00;92610.78;5090084;28;20649;-78
2023/06/12 02:54:54;;;;;;;6.43;4.38;;;;;;;15.43;100.00;92593.69;5070486;28;20044;-78
2023/06/12 02:57:22;;;;;;;5.95;4.38;;;;;;;15.55;100.00;92605.63;5068403;28;20047;-78
2023/06/12 02:59:49;;;;;;;6.82;3.88;;;;;;;15.58;100.00;92610.25;5055773;28;20044;-78
2023/06/12 03:02:16;;;;;;;5.93;4.63;;;;;;;15.35;100.00;92576.84;5069762;28;20045;-78
2023/06/12 03:04:42;;;;;;;7.65;4.82;;;;;;;15.60;100.00;92621.16;5063915;28;20056;-78
2023/06/12 03:07:12;;;;;;;5.25;3.85;;;;;;;15.44;100.00;92586.69;5060202;28;20059;-78
2023/06/12 03:09:38;;;;;;;5.25;3.75;;;;;;;15.67;100.00;92616.50;5068843;28;21554;-78
2023/06/12 03:12:06;;;;;;;7.72;4.53;;;;;;;15.71;100.00;92617.56;5069675;28;20094;-79
2023/06/12 03:14:34;;;;;;;7.75;4.32;;;;;;;15.71;100.00;92620.16;5050418;28;20501;-78
2023/06/12 03:17:01;;;;;;;8.48;4.60;;;;;;;15.74;100.00;92626.63;5064102;28;20532;-78
2023/06/12 03:19:27;;;;;;;8.02;3.95;;;;;;;15.74;100.00;92622.22;5063857;28;20044;-79
2023/06/12 03:21:54;;;;;;;7.45;4.57;;;;;;;15.75;100.00;92628.19;5073792;28;20055;-79
2023/06/12 03:24:21;;;;;;;14.57;6.82;;;;;;;15.72;100.00;92613.94;5064691;28;20102;-78
2023/06/12 03:26:48;;;;;;;15.30;7.15;;;;;;;15.81;100.00;92621.19;5071215;28;20048;-78
2023/06/12 03:29:15;;;;;;;13.77;7.03;;;;;;;15.78;100.00;92614.69;5089368;28;20048;-78
2023/06/12 03:31:43;;;;;;;13.68;8.00;;;;;;;15.85;100.00;92619.66;5085130;28;20500;-79
2023/06/12 03:34:10;;;;;;;13.95;8.68;;;;;;;15.88;100.00;92619.16;5056692;28;20055;-78
2023/06/12 03:36:37;;;;;;;19.85;8.85;;;;;;;15.86;100.00;92618.59;5069045;28;20045;-78
2023/06/12 03:39:04;;;;;;;16.38;8.35;;;;;;;15.90;100.00;92627.44;5068579;28;20641;-79
2023/06/12 03:41:32;;;;;;;16.65;8.10;;;;;;;15.95;100.00;92621.50;5056864;28;20575;-78
2023/06/12 03:43:59;;;;;;;16.23;8.25;;;;;;;15.95;100.00;92627.47;5065463;28;20040;-78
2023/06/12 03:46:26;;;;;;;23.17;9.52;;;;;;;15.95;100.00;92611.13;5070816;28;20098;-79
2023/06/12 03:48:54;;;;;;;15.43;8.85;;;;;;;15.98;100.00;92624.34;5064334;28;20453;-79
2023/06/12 03:51:21;;;;;;;16.38;8.00;;;;;;;15.97;100.00;92609.09;5080840;28;20072;-79
2023/06/12 03:53:48;;;;;;;14.20;7.70;;;;;;;15.81;100.00;92595.28;5081365;28;20565;-80
2023/06/12 03:56:14;;;;;;;15.85;7.55;;;;;;;16.07;100.00;92618.66;5079162;28;20633;-80
2023/06/12 03:58:41;;;;;;;15.38;8.80;;;;;;;16.07;100.00;92603.91;5088701;28;20101;-79
2023/06/12 04:01:08;;;;;;;14.18;7.38;;;;;;;16.09;100.00;92606.22;5088467;28;20093;-80
2023/06/12 04:03:38;;;;;;;14.13;8.60;;;;;;;16.15;100.00;92612.97;5064370;28;20044;-80
2023/06/12 04:06:06;;;;;;;20.73;7.93;;;;;;;16.13;100.00;92615.84;5079069;28;20447;-80
2023/06/12 04:08:33;;;;;;;16.15;8.13;;;;;;;16.14;100.00;92603.63;5081451;28;20375;-79
2023/06/12 04:11:02;;;;;;;18.60;8.27;;;;;;;16.19;100.00;92598.47;5063974;28;20045;-78
2023/06/12 04:13:29;;;;;;;16.40;8.55;;;;;;;16.26;100.00;92605.97;5078396;28;20531;-78
2023/06/12 04:15:57;;;;;;;17.55;8.32;;;;;;;16.37;100.00;92606.75;5079704;28;20446;-79
2023/06/12 04:18:24;;;;;;;25.10;9.60;;;;;;;16.35;100.00;92608.81;5062039;28;20055;-79
2023/06/12 04:20:51;;;;;;;22.98;10.10;;;;;;;16.49;100.00;92617.66;5078891;28;20479;-79
2023/06/12 04:23:20;;;;;;;19.13;8.90;;;;;;;16.56;100.00;92619.94;5067294;28;20040;-79
2023/06/12 04:25:48;;;;;;;20.42;9.60;;;;;;;16.65;100.00;92612.41;5085884;28;20051;-78
2023/06/12 04:28:16;;;;;;;14.32;8.40;;;;;;;16.69;100.00;92597.91;5088404;28;20048;-79
2023/06/12 04:30:44;;;;;;;20.27;8.65;;;;;;;16.79;100.00;92605.66;5079538;28;20131;-79
2023/06/12 04:33:11;;;;;;;14.32;8.02;;;;;;;16.85;100.00;92597.88;5087615;28;20084;-79
2023/06/12 04:35:38;;;;;;;17.13;8.27;;;;;;;16.91;100.00;92592.41;5061546;28;20044;-79
2023/06/12 04:38:07;;;;;;;20.52;8.65;;;;;;;17.03;100.00;92599.91;5074573;28;20044;-79
2023/06/12 04:40:36;;;;;;;15.27;8.23;;;;;;;17.04;100.00;92613.66;5082117;28;20048;-79
2023/06/12 04:43:06;;;;;;;13.35;6.30;;;;;;;16.76;100.00;92584.66;5078644;28;20082;-80
2023/06/12 04:45:34;;;;;;;16.65;7.50;;;;;;;16.93;100.00;92608.47;5065132;28;20045;-80
2023/06/12 04:48:01;;;;;;;11.98;6.78;;;;;;;16.63;100.00;92602.31;5063131;28;20094;-80
2023/06/12 04:50:28;;;;;;;12.70;7.03;;;;;;;16.72;100.00;92612.94;5067663;28;20059;-79
2023/06/12 04:52:54;;;;;;;13.60;6.60;;;;;;;16.88;100.00;92602.50;5082682;28;20413;-79
2023/06/12 04:55:22;;;;;;;15.77;7.95;;;;;;;17.09;100.00;92614.41;5088043;28;20044;-80
2023/06/12 04:57:52;;;;;;;10.65;6.13;;;;;;;17.25;100.00;92614.38;5072756;28;20452;-79
2023/06/12 05:00:19;;;;;;;12.13;6.78;;;;;;;17.32;100.00;92611.50;5064461;28;20040;-79
2023/06/12 05:02:47;;;;;;;16.30;7.50;;;;;;;17.43;100.00;92609.63;5087962;28;20044;-79
2023/06/12 05:05:14;;;;;;;16.23;8.52;;;;;;;17.54;100.00;92605.94;5067639;28;20496;-79
2023/06/12 05:07:41;;;;;;;18.70;8.68;;;;;;;17.60;100.00;92607.44;5071343;28;20054;-79
2023/06/12 05:10:08;;;;;;;20.75;10.88;;;;;;;17.60;100.00;92593.72;5088039;28;20080;-79
2023/06/12 05:12:35;;;;;;;23.08;9.85;;;;;;;17.75;100.00;92605.81;5072737;28;20086;-78
2023/06/12 05:15:07;;;;;;;21.35;9.80;;;;;;;17.84;100.00;92614.59;5076549;28;20048;-78
2023/06/12 05:17:33;;;;;;;18.77;8.95;;;;;;;17.83;100.00;92599.28;5087209;28;20097;-78
2023/06/12 05:20:01;;;;;;;19.17;9.40;;;;;;;17.96;100.00;92610.91;5070714;28;20044;-78
2023/06/12 05:22:27;;;;;;;18.33;8.68;;;;;;;17.96;100.00;92614.25;5077332;28;20055;-79
2023/06/12 05:24:54;;;;;;;15.95;8.45;;;;;;;17.98;100.00;92612.19;5087357;28;20048;-78
2023/06/12 05:27:21;;;;;;;21.00;9.77;;;;;;;18.02;100.00;92615.78;5066614;28;20084;-78
2023/06/12 05:29:48;;;;;;;21.40;9.88;;;;;;;18.06;100.00;92620.44;5067143;28;20500;-78
2023/06/12 05:32:16;;;;;;;23.58;10.02;;;;;;;18.12;100.00;92616.78;5087373;28;20102;-78
2023/06/12 05:34:43;;;;;;;18.10;10.30;;;;;;;18.19;100.00;92621.69;5087364;28;20102;-78
2023/06/12 05:37:09;;;;;;;18.13;9.40;;;;;;;18.06;100.00;92623.84;5067388;28;20043;-79
2023/06/12 05:39:36;;;;;;;20.30;8.88;;;;;;;17.93;100.00;92621.81;5071296;28;20493;-79
2023/06/12 05:42:04;;;;;;;17.15;8.50;;;;;;;17.52;100.00;92621.00;5074054;28;20044;-79
2023/06/12 05:44:32;;;;;;;20.02;10.43;;;;;;;17.60;100.00;92625.63;5075976;28;20071;-78
2023/06/12 05:46:58;;;;;;;16.08;8.15;;;;;;;17.71;100.00;92621.19;5067672;28;20143;-78
2023/06/12 05:49:26;;;;;;;20.35;9.93;;;;;;;17.72;100.00;92627.91;5083180;28;20052;-79
2023/06/12 05:51:53;;;;;;;18.80;9.10;;;;;;;17.88;100.00;92633.78;5091223;28;20097;-79
2023/06/12 05:54:20;;;;;;;15.43;8.15;;;;;;;18.05;100.00;92626.69;5090971;28;20040;-80
2023/06/12 05:56:46;;;;;;;17.40;8.75;;;;;;;18.18;100.00;92639.09;5070716;28;20048;-79
2023/06/12 05:59:13;;;;;;;17.40;8.73;;;;;;;18.07;100.00;92633.19;5088287;28;20044;-79
2023/06/12 06:01:40;;;;;;;20.33;8.98;;;;;;;18.24;100.00;92632.03;5091307;28;20056;-80
2023/06/12 06:04:10;;;;;;;26.40;12.48;;;;;;;18.27;100.00;92621.09;5082879;28;20063;-79
2023/06/12 06:06:38;;;;;;;19.33;10.13;;;;;;;18.43;100.00;92634.75;5070156;28;20080;-79
2023/06/12 06:09:05;;;;;;;20.70;10.38;;;;;;;18.54;100.00;92643.25;5088559;28;20416;-79
2023/06/12 06:11:32;;;;;;;19.83;9.40;;;;;;;18.31;100.00;92640.31;5088549;28;20443;-79
2023/06/12 06:13:59;;;;;;;16.70;8.98;;;;;;;18.37;100.00;92636.63;5064933;28;20048;-76
2023/06/12 06:16:26;;;;;;;18.92;9.23;;;;;;;18.37;100.00;92625.47;5081928;28;20044;-79
2023/06/12 06:18:53;;;;;;;20.70;9.27;;;;;;;18.43;100.00;92638.13;5090006;28;20622;-78
2023/06/12 06:21:20;;;;;;;19.73;8.77;;;;;;;18.52;100.00;92634.94;5090845;28;20105;-78
2023/06/12 06:23:48;;;;;;;20.10;9.43;;;;;;;18.52;100.00;92625.31;5066094;28;20493;-78
2023/06/12 06:26:15;;;;;;;26.42;10.23;;;;;;;18.67;100.00;92645.22;5067252;28;20102;-78
2023/06/12 06:28:42;;;;;;;22.40;9.55;;;;;;;18.67;100.00;92647.03;5084416;28;20049;-78
2023/06/12 06:31:09;;;;;;;21.23;10.85;;;;;;;18.69;100.00;92642.34;5074341;28;20496;-78
2023/06/12 06:33:36;;;;;;;26.27;9.55;;;;;;;18.72;100.00;92641.81;5090173;28;20040;-79
2023/06/12 06:36:03;;;;;;;21.48;9.35;;;;;;;18.82;100.00;92646.91;5072972;28;20055;-78
2023/06/12 06:38:30;;;;;;;20.42;9.27;;;;;;;18.87;100.00;92653.09;5083577;28;20048;-79
2023/06/12 06:40:59;;;;;;;20.30;7.97;;;;;;;18.83;100.00;92651.06;5090105;28;20047;-78
2023/06/12 06:43:25;;;;;;;19.58;8.80;;;;;;;18.94;100.00;92648.38;5090359;28;20048;-78
2023/06/12 06:45:52;;;;;;;27.65;10.02;;;;;;;19.06;100.00;92651.38;5073864;28;20826;-78
2023/06/12 06:48:19;;;;;;;21.05;9.32;;;;;;;19.15;100.00;92648.16;5084239;28;20094;-79
2023/06/12 06:50:46;;;;;;;21.38;10.45;;;;;;;19.12;100.00;92654.69;5081556;28;20060;-78
2023/06/12 06:53:12;;;;;;;17.17;8.68;;;;;;;19.00;100.00;92647.25;5076065;28;20044;-78
2023/06/12 06:55:42;;;;;;;18.60;9.40;;;;;;;19.24;100.00;92649.13;5089687;28;20512;-78
2023/06/12 06:58:10;;;;;;;18.63;9.13;;;;;;;19.38;100.00;92648.47;5084904;28;20052;-78
2023/06/12 07:00:36;;;;;;;18.55;8.10;;;;;;;19.53;100.00;92647.50;5080634;28;20048;-77
2023/06/12 07:03:03;;;;;;;25.30;9.00;;;;;;;19.74;100.00;92658.44;5077778;28;20045;-78
2023/06/12 07:05:33;;;;;;;20.05;8.48;;;;;;;19.72;100.00;92631.91;5084458;28;20094;-78
2023/06/12 07:08:00;;;;;;;23.60;10.05;;;;;;;20.01;100.00;92662.28;5073944;28;20412;-78
2023/06/12 07:10:26;;;;;;;22.48;10.23;;;;;;;20.02;100.00;92646.38;5079107;28;20089;-78
2023/06/12 07:12:56;;;;;;;18.70;8.43;;;;;;;20.21;100.00;92661.22;5089510;28;20090;-78
2023/06/12 07:15:25;;;;;;;16.02;8.02;;;;;;;20.12;100.00;92653.28;5069839;28;20045;-79
2023/06/12 07:17:51;;;;;;;19.25;9.43;;;;;;;20.19;100.00;92652.13;5080677;28;20044;-79
2023/06/12 07:20:18;;;;;;;19.38;9.55;;;;;;;20.26;100.00;92655.16;5063158;28;20059;-78
2023/06/12 07:22:45;;;;;;;21.70;9.27;;;;;;;20.36;100.00;92654.25;5077872;28;20090;-79
2023/06/12 07:25:12;;;;;;;17.63;8.63;;;;;;;20.47;100.00;92650.41;5088926;28;20059;-78
2023/06/12 07:27:38;;;;;;;19.08;9.88;;;;;;;20.67;100.00;92646.69;5085483;28;20044;-79
2023/06/12 07:30:06;;;;;;;22.80;9.27;;;;;;;20.81;100.00;92651.16;5062250;28;20114;-78
2023/06/12 07:32:34;;;;;;;16.88;8.50;;;;;;;20.84;100.00;92648.00;5084684;28;20139;-78
2023/06/12 07:35:01;;;;;;;17.40;7.50;;;;;;;21.03;100.00;92660.22;5089396;28;20056;-78
2023/06/12 07:37:35;;;;;;;12.85;6.28;;;;;;;21.11;100.00;92662.19;5083163;28;20036;-78
2023/06/12 07:40:04;;;;;;;10.40;6.57;;;;;;;21.25;100.00;92664.81;5064249;28;20056;-79
2023/06/12 07:42:31;;;;;;;18.02;7.65;;;;;;;21.28;100.00;92664.22;5087656;28;20515;-79
2023/06/12 07:44:58;;;;;;;13.95;7.13;;;;;;;21.31;100.00;92652.41;5087716;28;20044;-79
2023/06/12 07:47:24;;;;;;;10.98;6.43;;;;;;;21.33;100.00;92661.50;5063890;28;20036;-79
2023/06/12 07:49:52;;;;;;;15.02;6.50;;;;;;;21.28;100.00;92672.03;5079309;28;20109;-79
2023/06/12 07:52:20;;;;;;;14.30;6.63;;;;;;;21.36;100.00;92670.59;5088954;28;20040;-80
2023/06/12 07:54:47;;;;;;;10.27;6.32;;;;;;;21.42;100.00;92661.59;5078940;28;20048;-80
2023/06/12 07:57:16;;;;;;;15.20;6.03;;;;;;;21.52;100.00;92662.47;5069942;28;20089;-79
2023/06/12 07:59:44;;;;;;;15.35;6.15;;;;;;;21.56;100.00;92666.81;5069800;28;20048;-79
2023/06/12 08:02:11;;;;;;;11.02;6.45;;;;;;;21.50;100.00;92668.00;5079462;28;20361;-79
2023/06/12 08:04:40;;;;;;;13.93;5.97;;;;;;;21.52;100.00;92665.84;5081011;28;20044;-80
2023/06/12 08:07:11;;;;;;;15.75;6.47;;;;;;;21.52;100.00;92663.22;5078373;28;20059;-80
2023/06/12 08:09:39;;;;;;;9.48;5.30;;;;;;;21.54;100.00;92671.56;5088529;28;20514;-80
2023/06/12 08:12:06;;;;;;;12.82;5.47;;;;;;;21.51;100.00;92659.06;5088806;28;20044;-79
2023/06/12 08:14:33;;;;;;;11.48;6.43;;;;;;;21.60;100.00;92670.41;5075311;28;20489;-80
2023/06/12 08:17:00;;;;;;;12.35;6.25;;;;;;;21.65;100.00;92668.75;5074636;28;20040;-80
2023/06/12 08:19:26;;;;;;;11.85;6.43;;;;;;;21.70;100.00;92677.28;5087651;28;20055;-80
2023/06/12 08:21:53;;;;;;;12.48;5.95;;;;;;;21.74;100.00;92675.66;5052801;28;20515;-79
2023/06/12 08:24:21;;;;;;;11.82;6.38;;;;;;;21.80;100.00;92678.16;5072880;28;20045;-79
2023/06/12 08:26:48;;;;;;;13.05;6.97;;;;;;;21.89;100.00;92681.63;5065673;28;20052;-80
2023/06/12 08:29:15;;;;;;;12.25;5.95;;;;;;;21.92;100.00;92675.81;5083145;28;20532;-79
2023/06/12 08:31:42;;;;;;;11.57;5.80;;;;;;;21.95;100.00;92669.22;5064473;28;20048;-79
2023/06/12 08:34:09;;;;;;;11.95;6.10;;;;;;;22.01;100.00;92673.28;5087955;28;20101;-80
2023/06/12 08:36:36;;;;;;;14.38;7.43;;;;;;;22.10;100.00;92674.13;5064937;28;20048;-80
2023/06/12 08:39:04;;;;;;;10.52;5.63;;;;;;;22.22;100.00;92680.69;5078216;28;20040;-80
2023/06/12 08:41:34;;;;;;;12.73;6.43;;;;;;;22.33;100.00;92676.78;5087731;28;20036;-79
2023/06/12 08:44:02;;;;;;;23.98;7.38;;;;;;;22.31;100.00;92686.75;5087164;28;20048;-80
2023/06/12 08:46:30;;;;;;;15.68;8.35;;;;;;;22.32;100.00;92695.38;5066360;28;20040;-80
2023/06/12 08:48:59;;;;;;;11.52;7.95;;;;;;;22.26;100.00;92687.63;5085988;28;20048;-80
2023/06/12 08:51:26;;;;;;;10.50;7.38;;;;;;;22.12;100.00;92684.31;5070590;28;20067;-80
2023/06/12 08:53:53;;;;;;;11.75;7.95;;;;;;;21.10;100.00;92600.56;5078445;28;20094;-80
2023/06/12 08:56:22;;;;;;;12.48;8.10;;;;;;;21.65;100.00;92666.91;5062519;28;20483;-79
2023/06/12 08:58:50;;;;;;;14.15;8.10;;;;;;;21.73;100.00;92678.53;5074636;28;20130;-79
2023/06/12 09:01:18;;;;;;;12.93;7.10;;;;;;;21.48;100.00;92670.13;5068142;28;20643;-79
2023/06/12 09:03:49;;;;;;;12.82;8.07;;;;;;;21.76;100.00;92670.13;5078700;28;20048;-79
2023/06/12 09:06:18;;;;;;;13.27;7.38;;;;;;;21.95;100.00;92659.53;5087779;28;20044;-79
2023/06/12 09:08:45;;;;;;;11.32;7.63;;;;;;;22.42;100.00;92668.97;5067646;28;20044;-79
2023/06/12 09:11:12;;;;;;;14.05;6.85;;;;;;;22.51;100.00;92661.19;5080230;28;20102;-79
2023/06/12 09:13:42;;;;;;;11.73;7.28;;;;;;;22.20;100.00;92674.94;5087470;28;20036;-80
2023/06/12 09:16:14;;;;;;;10.60;6.05;;;;;;;22.28;100.00;92666.41;5087783;28;20164;-79
2023/06/12 09:18:51;;;;;;;7.63;4.90;;;;;;;22.43;100.00;92665.28;5069250;28;20037;-79
2023/06/12 09:21:18;;;;;;;7.53;4.65;;;;;;;22.51;100.00;92666.41;5086653;28;20503;-79
2023/06/12 09:23:45;;;;;;;8.35;5.10;;;;;;;22.03;98.63;92663.28;5087736;28;20101;-79
2023/06/12 09:26:15;;;;;;;8.95;4.95;;;;;;;21.99;99.58;92663.09;5087514;28;20056;-79
2023/06/12 09:28:43;;;;;;;9.93;5.30;;;;;;;21.79;99.99;92661.69;5059971;28;20053;-79
2023/06/12 09:31:10;;;;;;;10.30;5.50;;;;;;;22.09;100.00;92658.72;5061880;28;20073;-80
2023/06/12 09:33:40;;;;;;;8.77;5.30;;;;;;;22.35;100.00;92645.09;5087252;28;20052;-79
2023/06/12 09:36:07;;;;;;;8.95;5.07;;;;;;;22.63;98.39;92652.84;5087374;28;20040;-80
2023/06/12 09:38:36;;;;;;;9.35;6.35;;;;;;;22.82;100.00;92644.78;5062277;28;20053;-79
2023/06/12 09:41:04;;;;;;;13.57;6.03;;;;;;;22.98;97.20;92634.69;5063673;28;20040;-80
2023/06/12 09:43:31;;;;;;;12.95;6.05;;;;;;;22.77;95.89;92642.28;5086776;28;20048;-80
2023/06/12 09:45:58;;;;;;;12.10;6.40;;;;;;;22.88;100.00;92627.09;5079515;28;20490;-79
2023/06/12 09:48:31;;;;;;;15.05;5.80;;;;;;;23.12;94.22;92636.41;5072896;28;20090;-79
2023/06/12 09:51:00;;;;;;;8.77;5.68;;;;;;;22.87;94.80;92615.06;5086660;28;20054;-79
2023/06/12 09:53:29;;;;;;;10.30;5.93;;;;;;;22.92;96.03;92628.78;5077014;28;20120;-79
2023/06/12 09:55:56;;;;;;;9.43;5.30;;;;;;;22.79;100.00;92616.56;5066345;28;20051;-80
2023/06/12 09:58:24;;;;;;;13.30;6.07;;;;;;;22.93;100.00;92613.84;5075290;28;20105;-79
2023/06/12 10:00:55;;;;;;;11.18;5.47;;;;;;;23.24;100.00;92615.69;5074406;28;20540;-79
2023/06/12 10:03:26;;;;;;;17.38;5.80;;;;;;;23.58;96.64;92618.72;5067855;28;20415;-80
2023/06/12 10:05:53;;;;;;;9.80;6.50;;;;;;;23.71;91.31;92627.53;5078889;28;20086;-77
2023/06/12 10:08:21;;;;;;;7.70;5.38;;;;;;;24.06;94.36;92621.56;5077749;28;20044;-80
2023/06/12 10:10:49;;;;;;;10.27;4.45;;;;;;;24.32;89.88;92612.91;5077601;28;20052;-79
2023/06/12 10:13:16;;;;;;;10.75;5.45;;;;;;;25.09;90.29;92615.69;5086962;28;20782;-79
2023/06/12 10:15:44;;;;;;;11.57;5.30;;;;;;;25.71;80.90;92625.94;5066469;28;20045;-79
2023/06/12 10:18:13;;;;;;;11.40;4.78;;;;;;;26.13;79.15;92612.00;5075321;28;20098;-79
2023/06/12 10:20:41;;;;;;;10.13;5.38;;;;;;;26.34;78.17;92627.00;5059121;28;20098;-79
2023/06/12 10:23:09;;;;;;;7.05;4.15;;;;;;;26.63;77.01;92620.13;5060354;28;20044;-80
2023/06/12 10:25:37;;;;;;;10.48;4.78;;;;;;;27.14;76.63;92615.72;5090018;28;20057;-80
2023/06/12 10:28:05;;;;;;;8.10;4.35;;;;;;;27.48;74.15;92611.09;5077033;28;20041;-81
2023/06/12 10:30:32;;;;;;;6.43;4.10;;;;;;;27.56;71.63;92612.84;5067617;28;20109;-80
2023/06/12 10:33:08;;;;;;;7.95;4.68;;;;;;;27.83;66.01;92607.22;5076132;28;20045;-80
2023/06/12 10:35:35;;;;;;;8.38;4.20;;;;;;;27.82;69.04;92584.59;5074738;28;20397;-80
2023/06/12 10:38:03;;;;;;;7.13;4.72;;;;;;;27.90;68.09;92604.03;5090475;28;20044;-80
2023/06/12 10:40:30;;;;;;;6.13;3.75;;;;;;;27.78;67.71;92596.91;5082945;28;20428;-81
2023/06/12 10:43:04;;;;;;;7.72;4.32;;;;;;;27.92;66.41;92602.59;5063071;28;20045;-80
2023/06/12 10:45:32;;;;;;;10.02;4.95;;;;;;;28.09;65.93;92596.25;5072255;28;20040;-80
2023/06/12 10:48:11;;;;;;;8.98;4.25;;;;;;;28.05;63.36;92590.13;5078118;28;20090;-80
2023/06/12 10:50:40;;;;;;;6.00;3.75;;;;;;;27.93;64.50;92585.66;5089683;28;20056;-80
2023/06/12 10:53:08;;;;;;;6.22;3.58;;;;;;;28.29;63.57;92580.59;5084525;28;20127;-80
2023/06/12 10:55:36;;;;;;;6.07;3.70;;;;;;;28.47;58.03;92577.66;5057722;28;20150;-80
2023/06/12 10:58:06;;;;;;;3.97;3.17;;;;;;;28.76;62.16;92568.59;5083460;28;20047;-80
2023/06/12 11:00:35;;;;;;;5.53;2.95;;;;;;;29.17;61.19;92575.59;5089198;28;20501;-80
2023/06/12 11:03:04;;;;;;;5.43;2.92;;;;;;;29.24;60.85;92564.41;5073646;28;20555;-80
2023/06/12 11:05:32;;;;;;;3.53;2.60;;;;;;;29.26;60.33;92565.59;5084926;28;20044;-80
2023/06/12 11:08:00;;;;;;;4.05;2.72;;;;;;;29.03;57.26;92565.44;5089249;28;20048;-80
2023/06/12 11:10:29;;;;;;;5.22;2.58;;;;;;;28.78;57.50;92536.50;5066008;28;20040;-79
2023/06/12 11:12:56;;;;;;;3.13;1.77;;;;;;;28.71;55.64;92544.28;5082492;28;20530;-80
2023/06/12 11:15:25;;;;;;;4.65;2.10;;;;;;;27.79;60.75;92558.84;5089597;28;20605;-80
2023/06/12 11:17:52;;;;;;;3.53;2.38;;;;;;;25.87;61.74;92559.59;5072983;28;20044;-79
2023/06/12 11:20:20;;;;;;;7.22;2.75;;;;;;;25.74;62.16;92553.50;5084720;28;20052;-80
2023/06/12 11:22:48;;;;;;;5.53;2.00;;;;;;;25.91;62.55;92551.81;5071851;28;20074;-81
2023/06/12 11:25:16;;;;;;;4.13;2.50;;;;;;;26.36;62.86;92545.09;5080165;28;20052;-81